createdAt,value
2019-03-21T00:00:00.034Z,29.07
2019-03-21T00:02:29.223Z,32.38
2019-03-21T00:04:58.620Z,35.80
2019-03-21T00:07:27.667Z,31.62
2019-03-21T00:10:20.168Z,30.27
2019-03-21T00:12:49.230Z,26.15
2019-03-21T00:15:25.327Z,32.30
2019-03-21T00:18:01.078Z,33.67
2019-03-21T00:20:30.166Z,32.55
2019-03-21T00:22:59.191Z,34.53
2019-03-21T00:25:28.255Z,33.53
2019-03-21T00:27:57.680Z,32.08
2019-03-21T00:30:26.934Z,30.95
2019-03-21T00:32:56.031Z,32.25
2019-03-21T00:35:25.209Z,29.42
2019-03-21T00:37:54.298Z,30.10
2019-03-21T00:40:28.561Z,36.28
2019-03-21T00:42:59.518Z,37.53
2019-03-21T00:45:28.647Z,33.95
2019-03-21T00:47:58.438Z,35.95
2019-03-21T00:50:27.717Z,32.00
2019-03-21T00:52:56.852Z,38.95
2019-03-21T00:55:26.196Z,33.73
2019-03-21T00:57:55.281Z,32.48
2019-03-21T01:00:27.064Z,37.88
2019-03-21T01:02:56.271Z,38.40
2019-03-21T01:05:25.292Z,37.10
2019-03-21T01:07:54.348Z,31.20
2019-03-21T01:10:24.050Z,34.13
2019-03-21T01:12:53.097Z,33.05
2019-03-21T01:15:22.242Z,35.03
2019-03-21T01:17:51.424Z,33.45
2019-03-21T01:20:20.464Z,54.45
2019-03-21T01:22:49.652Z,33.92
2019-03-21T01:25:25.096Z,34.18
2019-03-21T01:27:54.143Z,31.10
2019-03-21T01:30:23.300Z,34.13
2019-03-21T01:32:52.418Z,36.73
2019-03-21T01:35:21.474Z,39.20
2019-03-21T01:37:50.546Z,37.30
2019-03-21T01:40:20.984Z,43.35
2019-03-21T01:42:50.053Z,31.20
2019-03-21T01:45:20.707Z,38.73
2019-03-21T01:47:50.739Z,40.73
2019-03-21T01:50:20.148Z,31.33
2019-03-21T01:52:49.556Z,43.40
2019-03-21T01:55:18.802Z,38.90
2019-03-21T01:57:48.166Z,38.30
2019-03-21T02:00:23.365Z,43.08
2019-03-21T02:02:54.317Z,45.43
2019-03-21T02:05:23.474Z,37.95
2019-03-21T02:07:52.648Z,40.30
2019-03-21T02:10:22.087Z,37.38
2019-03-21T02:12:51.272Z,41.85
2019-03-21T02:15:20.435Z,42.85
2019-03-21T02:17:49.579Z,46.23
2019-03-21T02:20:18.686Z,45.83
2019-03-21T02:22:47.938Z,44.53
2019-03-21T02:25:21.896Z,45.28
2019-03-21T02:27:51.068Z,40.90
2019-03-21T02:30:25.225Z,46.80
2019-03-21T02:33:00.357Z,46.77
2019-03-21T02:35:31.059Z,44.23
2019-03-21T02:38:00.218Z,47.35
2019-03-21T02:40:29.360Z,48.28
2019-03-21T02:42:58.540Z,46.25
2019-03-21T02:45:27.900Z,43.17
2019-03-21T02:47:57.041Z,44.05
2019-03-21T02:50:28.842Z,41.42
2019-03-21T02:52:58.033Z,42.50
2019-03-21T02:55:27.083Z,44.18
2019-03-21T02:57:56.142Z,43.65
2019-03-21T03:00:26.142Z,39.15
2019-03-21T03:02:56.761Z,42.20
2019-03-21T03:05:27.286Z,42.00
2019-03-21T03:07:56.514Z,41.15
2019-03-21T03:10:31.524Z,44.50
2019-03-21T03:13:00.802Z,45.50
2019-03-21T03:15:30.628Z,43.68
2019-03-21T03:18:00.003Z,44.67
2019-03-21T03:20:29.032Z,48.92
2019-03-21T03:22:58.224Z,46.60
2019-03-21T03:25:27.284Z,40.88
2019-03-21T03:28:00.585Z,41.83
2019-03-21T03:30:29.630Z,48.42
2019-03-21T03:32:58.918Z,47.55
2019-03-21T03:35:27.974Z,47.00
2019-03-21T03:37:57.124Z,46.37
2019-03-21T03:40:29.643Z,58.95
2019-03-21T03:42:59.039Z,55.08
2019-03-21T03:45:37.445Z,48.02
2019-03-21T03:48:01.389Z,51.33
2019-03-21T03:50:30.461Z,52.03
2019-03-21T03:52:59.622Z,57.83
2019-03-21T03:55:28.884Z,47.43
2019-03-21T03:57:58.672Z,57.33
2019-03-21T04:00:27.826Z,46.53
2019-03-21T04:02:56.920Z,51.65
2019-03-21T04:05:26.008Z,58.02
2019-03-21T04:07:55.065Z,52.67
2019-03-21T04:10:26.838Z,55.23
2019-03-21T04:12:56.199Z,45.63
2019-03-21T04:15:25.340Z,51.92
2019-03-21T04:17:54.593Z,46.92
2019-03-21T04:20:26.152Z,51.83
2019-03-21T04:22:55.454Z,57.83
2019-03-21T04:25:37.072Z,65.08
2019-03-21T04:28:06.232Z,56.10
2019-03-21T04:30:35.276Z,59.38
2019-03-21T04:33:04.533Z,62.55
2019-03-21T04:35:33.595Z,53.20
2019-03-21T04:38:02.796Z,58.25
2019-03-21T04:40:31.848Z,76.92
2019-03-21T04:43:01.004Z,63.05
2019-03-21T04:45:30.328Z,48.73
2019-03-21T04:47:59.400Z,51.55
2019-03-21T04:50:28.461Z,53.87
2019-03-21T04:52:57.516Z,59.98
2019-03-21T04:55:26.586Z,55.20
2019-03-21T04:57:55.639Z,50.70
2019-03-21T05:00:26.732Z,56.45
2019-03-21T05:02:57.474Z,54.40
2019-03-21T05:05:26.637Z,60.17
2019-03-21T05:07:55.815Z,58.10
2019-03-21T05:10:25.005Z,54.27
2019-03-21T05:12:54.440Z,51.75
2019-03-21T05:15:26.031Z,57.10
2019-03-21T05:17:58.073Z,56.63
2019-03-21T05:20:27.236Z,53.23
2019-03-21T05:22:56.726Z,56.30
2019-03-21T05:25:25.971Z,58.10
2019-03-21T05:27:55.023Z,46.50
2019-03-21T05:30:30.598Z,51.83
2019-03-21T05:32:59.753Z,57.75
2019-03-21T05:35:28.818Z,62.50
2019-03-21T05:37:57.984Z,61.73
2019-03-21T05:40:27.185Z,58.17
2019-03-21T05:43:02.512Z,66.77
2019-03-21T05:45:31.553Z,57.80
2019-03-21T05:48:00.657Z,68.12
2019-03-21T05:50:29.694Z,60.85
2019-03-21T05:52:58.747Z,59.70
2019-03-21T05:55:27.840Z,59.45
2019-03-21T05:57:57.017Z,76.45
2019-03-21T06:00:29.205Z,68.60
2019-03-21T06:02:58.598Z,57.10
2019-03-21T06:05:27.993Z,55.55
2019-03-21T06:08:04.320Z,51.18
2019-03-21T06:10:33.390Z,57.55
2019-03-21T06:13:02.542Z,59.80
2019-03-21T06:15:32.891Z,54.35
2019-03-21T06:18:45.525Z,45.98
2019-03-21T06:21:34.135Z,44.77
2019-03-21T06:24:23.817Z,51.63
2019-03-21T06:27:14.546Z,47.93
2019-03-21T06:29:38.879Z,43.48
2019-03-21T06:32:07.923Z,39.78
2019-03-21T06:34:36.988Z,47.35
2019-03-21T06:37:06.083Z,48.33
2019-03-21T06:39:35.132Z,47.65
2019-03-21T06:42:04.367Z,45.00
2019-03-21T06:44:33.438Z,43.87
2019-03-21T06:47:02.661Z,45.20
2019-03-21T06:49:31.833Z,49.70
2019-03-21T06:52:20.814Z,48.68
2019-03-21T06:54:49.992Z,44.60
2019-03-21T06:57:19.164Z,41.48
2019-03-21T06:59:48.242Z,46.35
2019-03-21T07:02:17.355Z,48.08
2019-03-21T07:04:46.549Z,45.67
2019-03-21T07:07:15.829Z,44.10
2019-03-21T07:09:44.882Z,37.03
2019-03-21T07:12:14.330Z,37.45
2019-03-21T07:14:43.592Z,37.80
2019-03-21T07:17:12.733Z,38.05
2019-03-21T07:19:42.404Z,35.85
2019-03-21T07:22:12.487Z,39.50
2019-03-21T07:24:41.896Z,35.13
2019-03-21T07:27:11.045Z,37.83
2019-03-21T07:29:40.200Z,35.70
2019-03-21T07:32:09.257Z,36.33
2019-03-21T07:34:38.328Z,34.67
2019-03-21T07:37:07.376Z,34.33
2019-03-21T07:39:36.432Z,34.55
2019-03-21T07:42:05.935Z,29.65
2019-03-21T07:44:34.999Z,34.45
2019-03-21T07:47:12.634Z,33.48
2019-03-21T07:49:35.013Z,29.95
2019-03-21T07:52:04.080Z,35.13
2019-03-21T07:54:33.147Z,30.43
2019-03-21T07:57:02.207Z,27.58
2019-03-21T07:59:31.278Z,31.73
2019-03-21T08:02:00.440Z,29.85
2019-03-21T08:04:29.538Z,31.57
2019-03-21T08:06:58.692Z,24.40
2019-03-21T08:09:27.903Z,31.62
2019-03-21T08:11:57.000Z,25.92
2019-03-21T08:14:26.048Z,30.65
2019-03-21T08:16:55.220Z,29.70
2019-03-21T08:19:24.323Z,26.42
2019-03-21T08:21:53.380Z,34.23
2019-03-21T08:24:22.529Z,31.20
2019-03-21T08:26:51.814Z,31.23
2019-03-21T08:29:20.962Z,27.05
2019-03-21T08:31:50.021Z,29.15
2019-03-21T08:34:19.129Z,36.98
2019-03-21T08:36:48.193Z,24.07
2019-03-21T08:39:17.256Z,21.60
2019-03-21T08:41:46.599Z,25.55
2019-03-21T08:44:15.651Z,28.87
2019-03-21T08:46:44.938Z,21.30
2019-03-21T08:49:14.032Z,29.50
2019-03-21T08:51:43.235Z,24.72
2019-03-21T08:54:13.654Z,23.07
2019-03-21T08:56:42.861Z,25.10
2019-03-21T08:59:11.882Z,22.82
2019-03-21T09:01:41.488Z,23.22
2019-03-21T09:04:10.562Z,28.45
2019-03-21T09:06:39.612Z,26.50
2019-03-21T09:09:08.972Z,22.17
2019-03-21T09:11:38.332Z,24.70
2019-03-21T09:14:07.334Z,25.25
2019-03-21T09:16:36.501Z,25.52
2019-03-21T09:19:05.746Z,26.02
2019-03-21T09:21:34.887Z,22.15
2019-03-21T09:24:04.098Z,26.77
2019-03-21T09:26:33.281Z,27.70
2019-03-21T09:29:02.443Z,23.92
2019-03-21T09:31:31.509Z,23.40
2019-03-21T09:34:00.604Z,23.77
2019-03-21T09:36:29.665Z,26.87
2019-03-21T09:38:58.745Z,21.17
2019-03-21T09:41:27.932Z,22.15
2019-03-21T09:43:56.998Z,30.45
2019-03-21T09:46:26.054Z,27.48
2019-03-21T09:48:55.108Z,28.15
2019-03-21T09:51:30.845Z,22.48
2019-03-21T09:53:55.232Z,22.17
2019-03-21T09:56:24.279Z,25.60
2019-03-21T09:58:53.430Z,23.98
2019-03-21T10:01:22.903Z,27.17
2019-03-21T10:03:51.958Z,25.65
2019-03-21T10:06:21.016Z,31.57
2019-03-21T10:08:50.118Z,27.15
2019-03-21T10:11:19.191Z,20.12
2019-03-21T10:13:48.452Z,19.82
2019-03-21T10:16:17.780Z,15.70
2019-03-21T10:18:46.866Z,14.73
2019-03-21T10:21:15.956Z,12.45
2019-03-21T10:23:45.227Z,15.65
2019-03-21T10:26:14.401Z,18.62
2019-03-21T10:28:43.467Z,13.32
2019-03-21T10:31:12.657Z,12.25
2019-03-21T10:33:41.796Z,12.03
2019-03-21T10:36:10.952Z,11.57
2019-03-21T10:38:40.020Z,13.60
2019-03-21T10:41:09.175Z,14.03
2019-03-21T10:43:38.226Z,11.75
2019-03-21T10:46:07.299Z,11.60
2019-03-21T10:48:36.448Z,17.20
2019-03-21T10:51:05.594Z,13.55
2019-03-21T10:53:34.664Z,14.98
2019-03-21T10:56:03.847Z,11.83
2019-03-21T10:58:32.889Z,12.03
2019-03-21T11:01:01.976Z,12.30
2019-03-21T11:03:31.136Z,13.28
2019-03-21T11:06:00.197Z,14.30
2019-03-21T11:08:29.246Z,12.73
2019-03-21T11:10:58.389Z,11.05
2019-03-21T11:13:27.452Z,13.05
2019-03-21T11:15:56.528Z,13.22
2019-03-21T11:18:35.692Z,14.50
2019-03-21T11:20:57.072Z,14.63
2019-03-21T11:23:26.245Z,11.75
2019-03-21T11:25:55.491Z,12.28
2019-03-21T11:28:24.559Z,13.48
2019-03-21T11:30:53.732Z,14.90
2019-03-21T11:33:22.772Z,13.30
2019-03-21T11:35:52.085Z,11.25
2019-03-21T11:38:21.136Z,14.53
2019-03-21T11:40:50.185Z,13.15
2019-03-21T11:43:19.691Z,13.60
2019-03-21T11:45:48.853Z,10.05
2019-03-21T11:48:18.093Z,11.50
2019-03-21T11:50:47.204Z,11.35
2019-03-21T11:53:16.256Z,8.45
2019-03-21T11:55:45.299Z,10.32
2019-03-21T11:58:14.490Z,11.05
2019-03-21T12:00:45.274Z,9.80
2019-03-21T12:03:14.512Z,11.65
2019-03-21T12:05:43.645Z,8.63
2019-03-21T12:08:12.703Z,10.35
2019-03-21T12:10:41.869Z,12.55
2019-03-21T12:13:10.920Z,9.70
2019-03-21T12:15:39.962Z,13.75
2019-03-21T12:18:09.028Z,10.93
2019-03-21T12:20:38.079Z,10.68
2019-03-21T12:23:07.267Z,12.55
2019-03-21T12:25:36.435Z,11.83
2019-03-21T12:28:05.593Z,13.18
2019-03-21T12:30:42.997Z,11.95
2019-03-21T12:33:12.263Z,12.10
2019-03-21T12:35:41.297Z,10.35
2019-03-21T12:38:10.468Z,10.58
2019-03-21T12:40:39.660Z,12.60
2019-03-21T12:43:08.717Z,12.68
2019-03-21T12:45:37.750Z,13.10
2019-03-21T12:48:07.026Z,13.15
2019-03-21T12:50:36.072Z,11.53
2019-03-21T12:53:05.219Z,14.07
2019-03-21T12:55:34.409Z,10.48
2019-03-21T12:58:03.943Z,11.97
2019-03-21T13:00:38.070Z,14.35
2019-03-21T13:03:07.265Z,12.05
2019-03-21T13:05:36.447Z,11.57
2019-03-21T13:08:05.708Z,12.63
2019-03-21T13:10:34.884Z,12.60
2019-03-21T13:13:04.425Z,15.70
2019-03-21T13:15:33.967Z,14.25
2019-03-21T13:18:04.709Z,12.15
2019-03-21T13:20:34.115Z,18.67
2019-03-21T13:23:03.671Z,12.23
2019-03-21T13:25:32.846Z,13.05
2019-03-21T13:28:02.151Z,14.28
2019-03-21T13:30:31.339Z,15.28
2019-03-21T13:33:00.513Z,18.10
2019-03-21T13:35:32.855Z,14.85
2019-03-21T13:38:00.646Z,13.62
2019-03-21T13:40:29.703Z,18.40
2019-03-21T13:42:58.777Z,12.18
2019-03-21T13:45:27.944Z,15.55
2019-03-21T13:47:56.998Z,18.10
2019-03-21T13:50:26.137Z,17.55
2019-03-21T13:53:04.341Z,16.12
2019-03-21T13:55:26.273Z,16.93
2019-03-21T13:57:55.862Z,13.95
2019-03-21T14:00:25.043Z,18.82
2019-03-21T14:02:54.123Z,13.13
2019-03-21T14:05:23.367Z,14.07
2019-03-21T14:07:52.535Z,15.95
2019-03-21T14:10:21.789Z,12.13
2019-03-21T14:12:50.948Z,16.00
2019-03-21T14:15:20.319Z,18.52
2019-03-21T14:17:49.365Z,13.05
2019-03-21T14:20:18.444Z,17.98
2019-03-21T14:22:47.519Z,15.25
2019-03-21T14:25:16.766Z,14.35
2019-03-21T14:27:45.844Z,11.78
2019-03-21T14:30:15.596Z,12.93
2019-03-21T14:32:44.818Z,13.68
2019-03-21T14:35:14.111Z,13.30
2019-03-21T14:37:43.292Z,14.95
2019-03-21T14:40:12.751Z,13.60
2019-03-21T14:42:42.422Z,15.68
2019-03-21T14:45:14.025Z,14.58
2019-03-21T14:47:43.298Z,16.42
2019-03-21T14:50:13.687Z,10.10
2019-03-21T14:52:43.136Z,12.95
2019-03-21T14:55:13.209Z,19.92
2019-03-21T14:57:42.300Z,19.10
2019-03-21T15:00:13.600Z,14.20
2019-03-21T15:02:42.881Z,13.13
2019-03-21T15:05:12.469Z,12.70
2019-03-21T15:07:41.620Z,12.00
2019-03-21T15:10:11.582Z,14.90
2019-03-21T15:12:40.639Z,12.65
2019-03-21T15:15:10.354Z,12.68
2019-03-21T15:17:39.510Z,14.20
2019-03-21T15:20:10.460Z,10.55
2019-03-21T15:22:39.479Z,16.57
2019-03-21T15:25:08.923Z,14.78
2019-03-21T15:27:38.092Z,12.33
2019-03-21T15:30:09.328Z,17.17
2019-03-21T15:32:38.492Z,14.05
2019-03-21T15:35:09.110Z,15.08
2019-03-21T15:37:38.590Z,20.32
2019-03-21T15:40:09.143Z,11.03
2019-03-21T15:42:38.795Z,15.58
2019-03-21T15:45:21.490Z,12.85
2019-03-21T15:47:41.514Z,19.82
2019-03-21T15:50:17.423Z,16.87
2019-03-21T15:52:46.529Z,16.35
2019-03-21T15:55:15.574Z,17.85
2019-03-21T15:57:44.631Z,13.93
2019-03-21T16:00:18.540Z,13.90
2019-03-21T16:02:47.579Z,17.35
2019-03-21T16:05:16.929Z,14.23
2019-03-21T16:07:45.950Z,14.65
2019-03-21T16:10:15.130Z,16.65
2019-03-21T16:12:44.207Z,15.25
2019-03-21T16:15:13.350Z,15.05
2019-03-21T16:17:42.406Z,17.40
2019-03-21T16:20:11.686Z,15.58
2019-03-21T16:22:40.793Z,13.93
2019-03-21T16:25:10.072Z,14.98
2019-03-21T16:27:39.118Z,14.68
2019-03-21T16:30:08.506Z,12.85
2019-03-21T16:32:37.538Z,17.17
2019-03-21T16:35:07.537Z,15.40
2019-03-21T16:37:36.901Z,20.23
2019-03-21T16:40:06.392Z,15.93
2019-03-21T16:42:37.151Z,16.77
2019-03-21T16:45:06.765Z,14.87
2019-03-21T16:47:35.934Z,15.65
2019-03-21T16:50:06.121Z,16.90
2019-03-21T16:52:35.176Z,13.50
2019-03-21T16:55:05.092Z,19.37
2019-03-21T16:57:34.244Z,20.48
2019-03-21T17:00:04.661Z,12.68
2019-03-21T17:02:33.919Z,19.17
2019-03-21T17:05:04.764Z,20.15
2019-03-21T17:07:33.853Z,18.10
2019-03-21T17:10:03.922Z,18.37
2019-03-21T17:12:33.100Z,23.07
2019-03-21T17:15:02.602Z,19.87
2019-03-21T17:17:31.641Z,20.82
2019-03-21T17:20:03.542Z,20.92
2019-03-21T17:22:31.802Z,20.00
2019-03-21T17:25:00.867Z,21.12
2019-03-21T17:27:29.919Z,33.38
2019-03-21T17:29:58.999Z,25.57
2019-03-21T17:32:28.149Z,21.87
2019-03-21T17:34:57.294Z,22.73
2019-03-21T17:37:26.418Z,25.57
2019-03-21T17:39:55.533Z,23.95
2019-03-21T17:42:24.830Z,22.67
2019-03-21T17:44:53.874Z,22.62
2019-03-21T17:47:23.149Z,22.77
2019-03-21T17:49:52.282Z,27.30
2019-03-21T17:52:21.307Z,25.60
2019-03-21T17:54:50.503Z,25.70
2019-03-21T17:57:19.668Z,31.25
2019-03-21T17:59:48.821Z,26.80
2019-03-21T18:02:18.097Z,27.50
2019-03-21T18:04:47.328Z,27.35
2019-03-21T18:07:16.480Z,28.47
2019-03-21T18:09:45.527Z,30.65
2019-03-21T18:12:14.612Z,31.42
2019-03-21T18:14:43.678Z,33.08
2019-03-21T18:17:12.773Z,35.03
2019-03-21T18:19:41.805Z,32.60
2019-03-21T18:22:10.995Z,31.68
2019-03-21T18:24:55.485Z,32.17
2019-03-21T18:29:54.294Z,36.03
2019-03-21T18:32:23.789Z,33.02
2019-03-21T18:34:52.883Z,36.98
2019-03-21T18:37:22.122Z,36.55
2019-03-21T18:39:51.151Z,37.73
2019-03-21T18:42:20.181Z,38.92
2019-03-21T18:44:50.557Z,34.43
2019-03-21T18:47:19.793Z,35.03
2019-03-21T18:49:48.832Z,38.28
2019-03-21T18:52:17.939Z,38.95
2019-03-21T18:54:46.956Z,40.43
2019-03-21T18:57:15.994Z,36.13
2019-03-21T18:59:45.016Z,35.63
2019-03-21T19:02:16.190Z,35.73
2019-03-21T19:04:45.359Z,34.25
2019-03-21T19:07:14.440Z,34.30
2019-03-21T19:09:44.115Z,34.18
2019-03-21T19:12:13.306Z,38.67
2019-03-21T19:14:42.372Z,37.90
2019-03-21T19:17:11.396Z,39.95
2019-03-21T19:19:40.431Z,39.15
2019-03-21T19:22:09.595Z,43.25
2019-03-21T19:24:38.631Z,36.48
2019-03-21T19:27:07.688Z,35.13
2019-03-21T19:29:36.811Z,35.68
2019-03-21T19:32:05.943Z,33.78
2019-03-21T19:34:34.969Z,37.20
2019-03-21T19:37:04.482Z,34.65
2019-03-21T19:39:33.531Z,33.70
2019-03-21T19:42:05.395Z,41.18
2019-03-21T19:44:33.735Z,42.25
2019-03-21T19:47:02.968Z,37.70
2019-03-21T19:49:32.318Z,38.75
2019-03-21T19:52:01.359Z,37.10
2019-03-21T19:54:30.414Z,39.27
2019-03-21T19:56:59.464Z,41.37
2019-03-21T19:59:28.641Z,42.08
2019-03-21T20:01:58.064Z,41.08
2019-03-21T20:04:27.086Z,38.25
2019-03-21T20:06:56.270Z,44.40
2019-03-21T20:09:25.366Z,42.50
2019-03-21T20:11:54.749Z,40.38
2019-03-21T20:14:23.784Z,47.53
2019-03-21T20:16:52.822Z,51.68
2019-03-21T20:19:21.831Z,54.03
2019-03-21T20:21:50.900Z,54.35
2019-03-21T20:24:20.043Z,51.13
2019-03-21T20:26:49.329Z,48.05
2019-03-21T20:29:18.404Z,43.35
2019-03-21T20:31:47.554Z,49.27
2019-03-21T20:34:16.690Z,49.80
2019-03-21T20:36:46.120Z,52.43
2019-03-21T20:39:15.237Z,43.90
2019-03-21T20:41:44.289Z,58.60
2019-03-21T20:44:15.430Z,63.52
2019-03-21T20:46:44.340Z,45.23
2019-03-21T20:49:13.373Z,59.93
2019-03-21T20:51:42.525Z,49.58
2019-03-21T20:54:11.648Z,53.83
2019-03-21T20:56:40.790Z,46.48
2019-03-21T20:59:09.839Z,50.88
2019-03-21T21:01:38.880Z,54.83
2019-03-21T21:04:08.032Z,52.48
2019-03-21T21:06:37.629Z,54.33
2019-03-21T21:09:07.298Z,53.55
2019-03-21T21:11:36.443Z,53.50
2019-03-21T21:14:06.739Z,56.20
2019-03-21T21:16:36.802Z,56.45
2019-03-21T21:19:05.857Z,56.53
2019-03-21T21:21:34.959Z,52.40
2019-03-21T21:24:04.339Z,57.75
2019-03-21T21:26:33.491Z,57.65
2019-03-21T21:29:02.811Z,60.83
2019-03-21T21:31:32.200Z,58.17
2019-03-21T21:34:01.293Z,58.00
2019-03-21T21:36:30.335Z,62.50
2019-03-21T21:38:59.965Z,59.50
2019-03-21T21:41:29.268Z,68.50
2019-03-21T21:43:58.387Z,65.92
2019-03-21T21:46:27.394Z,59.38
2019-03-21T21:48:56.469Z,68.25
2019-03-21T21:51:25.846Z,62.62
2019-03-21T21:53:54.998Z,64.22
2019-03-21T21:56:24.745Z,67.42
2019-03-21T21:58:53.881Z,60.73
2019-03-21T22:01:22.887Z,70.05
2019-03-21T22:04:03.798Z,67.95
2019-03-21T22:06:23.388Z,66.72
2019-03-21T22:08:52.440Z,65.83
2019-03-21T22:11:21.468Z,68.62
2019-03-21T22:13:50.732Z,68.42
2019-03-21T22:16:19.789Z,66.53
2019-03-21T22:18:49.176Z,69.35
2019-03-21T22:21:18.816Z,66.47
2019-03-21T22:23:47.984Z,68.42
2019-03-21T22:26:28.916Z,66.33
2019-03-21T22:28:48.089Z,75.32
2019-03-21T22:31:17.146Z,67.42
2019-03-21T22:33:46.363Z,69.97
2019-03-21T22:36:15.880Z,75.10
2019-03-21T22:38:45.293Z,70.97
2019-03-21T22:41:14.270Z,74.12
2019-03-21T22:43:43.432Z,74.37
2019-03-21T22:46:12.481Z,74.12
2019-03-21T22:48:42.009Z,72.47
2019-03-21T22:51:11.553Z,73.33
2019-03-21T22:53:41.016Z,76.57
2019-03-21T22:56:10.028Z,80.20
2019-03-21T22:58:39.634Z,71.00
2019-03-21T23:01:08.881Z,72.85
2019-03-21T23:03:38.348Z,77.58
2019-03-21T23:06:08.036Z,70.87
2019-03-21T23:08:37.805Z,74.47
2019-03-21T23:11:07.046Z,79.95
2019-03-21T23:13:36.077Z,77.00
2019-03-21T23:16:05.142Z,81.12
2019-03-21T23:18:34.187Z,78.33
2019-03-21T23:21:03.233Z,74.67
2019-03-21T23:23:32.282Z,78.80
2019-03-21T23:26:01.299Z,79.82
2019-03-21T23:28:30.336Z,77.25
2019-03-21T23:30:59.542Z,83.50
2019-03-21T23:33:28.681Z,78.92
2019-03-21T23:35:57.704Z,81.55
2019-03-21T23:38:26.772Z,91.92
2019-03-21T23:40:55.804Z,86.95
2019-03-21T23:43:24.856Z,86.82
2019-03-21T23:45:53.889Z,97.78
2019-03-21T23:48:22.926Z,97.62
2019-03-21T23:50:51.995Z,92.85
2019-03-21T23:53:21.057Z,100.47
2019-03-21T23:55:50.107Z,109.55
2019-03-21T23:58:19.141Z,111.05
